sensor_id;sensor_type;location;lat;lon;timestamp;temperature;humidity
11989;DHT22;6054;50.966;7.094;2023-07-31T00:02:25;25.40;58.10
11989;DHT22;6054;50.966;7.094;2023-07-31T00:04:51;25.50;58.20
11989;DHT22;6054;50.966;7.094;2023-07-31T00:07:18;25.40;58.00
11989;DHT22;6054;50.966;7.094;2023-07-31T00:09:45;25.40;57.80
11989;DHT22;6054;50.966;7.094;2023-07-31T00:12:12;25.40;57.70
11989;DHT22;6054;50.966;7.094;2023-07-31T00:14:40;25.40;57.80
11989;DHT22;6054;50.966;7.094;2023-07-31T00:17:06;25.40;57.70
11989;DHT22;6054;50.966;7.094;2023-07-31T00:19:33;25.40;57.70
11989;DHT22;6054;50.966;7.094;2023-07-31T00:22:00;25.40;57.70
11989;DHT22;6054;50.966;7.094;2023-07-31T00:24:26;25.50;57.70
11989;DHT22;6054;50.966;7.094;2023-07-31T00:26:53;25.50;57.90
11989;DHT22;6054;50.966;7.094;2023-07-31T00:29:20;25.50;57.50
11989;DHT22;6054;50.966;7.094;2023-07-31T00:31:48;25.40;57.20
11989;DHT22;6054;50.966;7.094;2023-07-31T00:34:15;25.40;57.40
11989;DHT22;6054;50.966;7.094;2023-07-31T00:36:41;25.40;57.40
11989;DHT22;6054;50.966;7.094;2023-07-31T00:39:08;25.40;57.50
11989;DHT22;6054;50.966;7.094;2023-07-31T00:41:35;25.30;57.60
11989;DHT22;6054;50.966;7.094;2023-07-31T00:44:02;25.50;57.80
11989;DHT22;6054;50.966;7.094;2023-07-31T00:46:28;25.30;57.60
11989;DHT22;6054;50.966;7.094;2023-07-31T00:48:57;25.30;57.70
11989;DHT22;6054;50.966;7.094;2023-07-31T00:51:24;25.30;57.60
11989;DHT22;6054;50.966;7.094;2023-07-31T00:53:51;25.30;58.00
11989;DHT22;6054;50.966;7.094;2023-07-31T00:56:21;25.30;58.00
11989;DHT22;6054;50.966;7.094;2023-07-31T00:58:48;25.40;57.70
11989;DHT22;6054;50.966;7.094;2023-07-31T01:01:15;25.30;57.50
11989;DHT22;6054;50.966;7.094;2023-07-31T01:03:42;25.30;57.20
11989;DHT22;6054;50.966;7.094;2023-07-31T01:06:30;25.30;57.10
11989;DHT22;6054;50.966;7.094;2023-07-31T01:09:03;25.30;57.20
11989;DHT22;6054;50.966;7.094;2023-07-31T01:11:33;25.30;56.90
11989;DHT22;6054;50.966;7.094;2023-07-31T01:14:01;25.30;57.10
11989;DHT22;6054;50.966;7.094;2023-07-31T01:16:28;25.30;56.80
11989;DHT22;6054;50.966;7.094;2023-07-31T01:18:55;25.30;56.70
11989;DHT22;6054;50.966;7.094;2023-07-31T01:21:41;25.20;56.30
11989;DHT22;6054;50.966;7.094;2023-07-31T01:24:21;25.50;56.90
11989;DHT22;6054;50.966;7.094;2023-07-31T01:26:55;25.50;56.80
11989;DHT22;6054;50.966;7.094;2023-07-31T01:29:29;25.30;56.60
11989;DHT22;6054;50.966;7.094;2023-07-31T01:32:01;25.30;56.50
11989;DHT22;6054;50.966;7.094;2023-07-31T01:34:29;25.20;56.50
11989;DHT22;6054;50.966;7.094;2023-07-31T01:36:56;25.50;56.40
11989;DHT22;6054;50.966;7.094;2023-07-31T01:39:23;25.20;56.20
11989;DHT22;6054;50.966;7.094;2023-07-31T01:41:52;25.30;56.10
11989;DHT22;6054;50.966;7.094;2023-07-31T01:44:19;25.20;55.90
11989;DHT22;6054;50.966;7.094;2023-07-31T01:46:45;25.30;55.80
11989;DHT22;6054;50.966;7.094;2023-07-31T01:49:12;25.30;55.70
11989;DHT22;6054;50.966;7.094;2023-07-31T01:51:39;25.30;55.40
11989;DHT22;6054;50.966;7.094;2023-07-31T01:54:06;25.30;55.30
11989;DHT22;6054;50.966;7.094;2023-07-31T01:56:33;25.30;56.10
11989;DHT22;6054;50.966;7.094;2023-07-31T01:59:01;25.40;55.60
11989;DHT22;6054;50.966;7.094;2023-07-31T02:01:27;25.30;55.60
11989;DHT22;6054;50.966;7.094;2023-07-31T02:03:54;25.30;55.60
11989;DHT22;6054;50.966;7.094;2023-07-31T02:06:21;25.30;55.50
11989;DHT22;6054;50.966;7.094;2023-07-31T02:08:48;25.30;55.30
11989;DHT22;6054;50.966;7.094;2023-07-31T02:11:14;25.60;55.40
11989;DHT22;6054;50.966;7.094;2023-07-31T02:13:41;25.50;55.40
11989;DHT22;6054;50.966;7.094;2023-07-31T02:16:09;25.30;55.40
11989;DHT22;6054;50.966;7.094;2023-07-31T02:18:36;25.30;54.90
11989;DHT22;6054;50.966;7.094;2023-07-31T02:21:03;25.30;55.30
11989;DHT22;6054;50.966;7.094;2023-07-31T02:23:29;25.30;55.30
11989;DHT22;6054;50.966;7.094;2023-07-31T02:25:56;25.50;55.50
11989;DHT22;6054;50.966;7.094;2023-07-31T02:28:23;25.30;55.30
11989;DHT22;6054;50.966;7.094;2023-07-31T02:30:50;25.30;55.30
11989;DHT22;6054;50.966;7.094;2023-07-31T02:33:18;25.40;55.30
11989;DHT22;6054;50.966;7.094;2023-07-31T02:35:45;25.30;55.40
11989;DHT22;6054;50.966;7.094;2023-07-31T02:38:12;25.30;55.30
11989;DHT22;6054;50.966;7.094;2023-07-31T02:40:39;25.40;55.50
11989;DHT22;6054;50.966;7.094;2023-07-31T02:43:06;25.40;55.50
11989;DHT22;6054;50.966;7.094;2023-07-31T02:45:33;25.40;55.60
11989;DHT22;6054;50.966;7.094;2023-07-31T02:48:00;25.60;55.70
11989;DHT22;6054;50.966;7.094;2023-07-31T02:50:28;25.50;55.70
11989;DHT22;6054;50.966;7.094;2023-07-31T02:52:55;25.50;55.80
11989;DHT22;6054;50.966;7.094;2023-07-31T02:55:21;25.40;55.50
11989;DHT22;6054;50.966;7.094;2023-07-31T02:57:48;25.50;55.60
11989;DHT22;6054;50.966;7.094;2023-07-31T03:00:15;25.50;55.60
11989;DHT22;6054;50.966;7.094;2023-07-31T03:02:42;25.50;55.20
11989;DHT22;6054;50.966;7.094;2023-07-31T03:05:08;25.50;55.40
11989;DHT22;6054;50.966;7.094;2023-07-31T03:07:36;25.50;55.30
11989;DHT22;6054;50.966;7.094;2023-07-31T03:10:04;25.50;55.20
11989;DHT22;6054;50.966;7.094;2023-07-31T03:12:31;25.50;55.20
11989;DHT22;6054;50.966;7.094;2023-07-31T03:14:57;25.50;54.80
11989;DHT22;6054;50.966;7.094;2023-07-31T03:17:24;25.50;54.90
11989;DHT22;6054;50.966;7.094;2023-07-31T03:19:51;25.50;54.70
11989;DHT22;6054;50.966;7.094;2023-07-31T03:22:17;25.60;54.60
11989;DHT22;6054;50.966;7.094;2023-07-31T03:24:46;25.50;54.60
11989;DHT22;6054;50.966;7.094;2023-07-31T03:27:12;25.80;54.70
11989;DHT22;6054;50.966;7.094;2023-07-31T03:29:39;25.60;54.80
11989;DHT22;6054;50.966;7.094;2023-07-31T03:32:06;25.50;55.00
11989;DHT22;6054;50.966;7.094;2023-07-31T03:34:33;25.60;55.10
11989;DHT22;6054;50.966;7.094;2023-07-31T03:37:00;25.50;54.60
11989;DHT22;6054;50.966;7.094;2023-07-31T03:39:26;25.50;54.70
11989;DHT22;6054;50.966;7.094;2023-07-31T03:41:54;25.50;54.70
11989;DHT22;6054;50.966;7.094;2023-07-31T03:44:21;25.50;54.60
11989;DHT22;6054;50.966;7.094;2023-07-31T03:46:48;25.50;54.70
11989;DHT22;6054;50.966;7.094;2023-07-31T03:49:14;25.50;54.50
11989;DHT22;6054;50.966;7.094;2023-07-31T03:51:41;25.60;54.40
11989;DHT22;6054;50.966;7.094;2023-07-31T03:54:08;25.50;54.40
11989;DHT22;6054;50.966;7.094;2023-07-31T03:56:35;25.50;54.30
11989;DHT22;6054;50.966;7.094;2023-07-31T03:59:05;25.50;54.10
11989;DHT22;6054;50.966;7.094;2023-07-31T04:06:35;25.50;55.00
11989;DHT22;6054;50.966;7.094;2023-07-31T04:09:02;25.60;54.60
11989;DHT22;6054;50.966;7.094;2023-07-31T04:11:29;25.40;54.90
11989;DHT22;6054;50.966;7.094;2023-07-31T04:13:56;25.60;54.60
11989;DHT22;6054;50.966;7.094;2023-07-31T04:16:24;25.50;54.60
11989;DHT22;6054;50.966;7.094;2023-07-31T04:18:51;25.50;53.50
11989;DHT22;6054;50.966;7.094;2023-07-31T04:21:18;25.40;54.60
11989;DHT22;6054;50.966;7.094;2023-07-31T04:23:44;25.40;54.40
11989;DHT22;6054;50.966;7.094;2023-07-31T04:26:11;25.50;54.90
11989;DHT22;6054;50.966;7.094;2023-07-31T04:28:38;25.70;55.00
11989;DHT22;6054;50.966;7.094;2023-07-31T04:31:05;25.50;54.90
11989;DHT22;6054;50.966;7.094;2023-07-31T04:33:33;25.50;54.80
11989;DHT22;6054;50.966;7.094;2023-07-31T04:35:59;25.50;55.00
11989;DHT22;6054;50.966;7.094;2023-07-31T04:38:26;25.80;55.40
11989;DHT22;6054;50.966;7.094;2023-07-31T04:40:53;25.60;55.50
11989;DHT22;6054;50.966;7.094;2023-07-31T04:43:20;25.60;55.70
11989;DHT22;6054;50.966;7.094;2023-07-31T04:45:47;25.60;55.70
11989;DHT22;6054;50.966;7.094;2023-07-31T04:48:14;25.60;56.20
11989;DHT22;6054;50.966;7.094;2023-07-31T04:50:42;25.60;56.10
11989;DHT22;6054;50.966;7.094;2023-07-31T04:53:09;25.90;56.10
11989;DHT22;6054;50.966;7.094;2023-07-31T04:55:36;25.80;56.20
11989;DHT22;6054;50.966;7.094;2023-07-31T04:58:03;25.60;55.80
11989;DHT22;6054;50.966;7.094;2023-07-31T05:00:29;25.60;55.80
11989;DHT22;6054;50.966;7.094;2023-07-31T05:02:56;25.60;55.50
11989;DHT22;6054;50.966;7.094;2023-07-31T05:05:23;25.60;55.80
11989;DHT22;6054;50.966;7.094;2023-07-31T05:07:51;25.60;55.80
11989;DHT22;6054;50.966;7.094;2023-07-31T05:10:18;25.70;55.60
11989;DHT22;6054;50.966;7.094;2023-07-31T05:12:44;25.70;55.10
11989;DHT22;6054;50.966;7.094;2023-07-31T05:15:11;25.70;55.30
11989;DHT22;6054;50.966;7.094;2023-07-31T05:17:38;25.60;54.80
11989;DHT22;6054;50.966;7.094;2023-07-31T05:20:06;25.60;55.10
11989;DHT22;6054;50.966;7.094;2023-07-31T05:22:33;25.70;55.50
11989;DHT22;6054;50.966;7.094;2023-07-31T05:25:01;25.60;54.60
11989;DHT22;6054;50.966;7.094;2023-07-31T05:27:28;25.70;54.70
11989;DHT22;6054;50.966;7.094;2023-07-31T05:29:54;25.90;54.70
11989;DHT22;6054;50.966;7.094;2023-07-31T05:32:21;25.70;54.30
11989;DHT22;6054;50.966;7.094;2023-07-31T05:34:50;25.70;53.90
11989;DHT22;6054;50.966;7.094;2023-07-31T05:37:17;25.70;54.30
11989;DHT22;6054;50.966;7.094;2023-07-31T05:39:44;25.80;54.10
11989;DHT22;6054;50.966;7.094;2023-07-31T05:42:12;25.80;54.50
11989;DHT22;6054;50.966;7.094;2023-07-31T05:44:39;25.80;54.40
11989;DHT22;6054;50.966;7.094;2023-07-31T05:47:06;25.80;54.10
11989;DHT22;6054;50.966;7.094;2023-07-31T05:49:32;25.90;53.90
11989;DHT22;6054;50.966;7.094;2023-07-31T05:51:59;26.00;54.20
11989;DHT22;6054;50.966;7.094;2023-07-31T05:54:26;25.90;53.90
11989;DHT22;6054;50.966;7.094;2023-07-31T05:56:53;25.90;53.90
11989;DHT22;6054;50.966;7.094;2023-07-31T05:59:21;25.90;54.10
11989;DHT22;6054;50.966;7.094;2023-07-31T06:01:48;26.00;54.10
11989;DHT22;6054;50.966;7.094;2023-07-31T06:04:14;25.90;54.10
11989;DHT22;6054;50.966;7.094;2023-07-31T06:06:41;25.90;54.00
11989;DHT22;6054;50.966;7.094;2023-07-31T06:09:08;25.90;53.70
11989;DHT22;6054;50.966;7.094;2023-07-31T06:11:35;26.00;53.90
11989;DHT22;6054;50.966;7.094;2023-07-31T06:14:01;25.90;53.80
11989;DHT22;6054;50.966;7.094;2023-07-31T06:16:29;25.90;53.80
11989;DHT22;6054;50.966;7.094;2023-07-31T06:18:56;25.90;53.70
11989;DHT22;6054;50.966;7.094;2023-07-31T06:21:23;26.00;54.10
11989;DHT22;6054;50.966;7.094;2023-07-31T06:23:50;25.90;54.20
11989;DHT22;6054;50.966;7.094;2023-07-31T06:26:16;25.90;54.40
11989;DHT22;6054;50.966;7.094;2023-07-31T06:28:43;25.90;54.60
11989;DHT22;6054;50.966;7.094;2023-07-31T06:31:10;25.90;54.70
11989;DHT22;6054;50.966;7.094;2023-07-31T06:33:38;26.10;55.20
11989;DHT22;6054;50.966;7.094;2023-07-31T06:36:06;25.80;55.30
11989;DHT22;6054;50.966;7.094;2023-07-31T06:38:33;25.80;55.60
11989;DHT22;6054;50.966;7.094;2023-07-31T06:40:59;25.80;55.90
11989;DHT22;6054;50.966;7.094;2023-07-31T06:43:26;25.90;56.10
11989;DHT22;6054;50.966;7.094;2023-07-31T06:45:53;25.80;56.20
11989;DHT22;6054;50.966;7.094;2023-07-31T06:48:20;25.70;57.10
11989;DHT22;6054;50.966;7.094;2023-07-31T06:50:48;25.70;56.30
11989;DHT22;6054;50.966;7.094;2023-07-31T06:53:14;25.70;56.30
11989;DHT22;6054;50.966;7.094;2023-07-31T06:55:41;25.70;56.40
11989;DHT22;6054;50.966;7.094;2023-07-31T06:58:08;25.70;56.60
11989;DHT22;6054;50.966;7.094;2023-07-31T07:00:35;25.60;56.70
11989;DHT22;6054;50.966;7.094;2023-07-31T07:03:01;25.70;56.80
11989;DHT22;6054;50.966;7.094;2023-07-31T07:05:28;25.60;56.60
11989;DHT22;6054;50.966;7.094;2023-07-31T07:07:56;25.70;56.80
11989;DHT22;6054;50.966;7.094;2023-07-31T07:10:23;25.80;57.10
11989;DHT22;6054;50.966;7.094;2023-07-31T07:12:50;25.70;57.10
11989;DHT22;6054;50.966;7.094;2023-07-31T07:15:16;25.80;57.30
11989;DHT22;6054;50.966;7.094;2023-07-31T07:17:43;25.80;57.30
11989;DHT22;6054;50.966;7.094;2023-07-31T07:20:10;25.80;57.30
11989;DHT22;6054;50.966;7.094;2023-07-31T07:22:37;25.80;57.20
11989;DHT22;6054;50.966;7.094;2023-07-31T07:25:06;25.80;57.20
11989;DHT22;6054;50.966;7.094;2023-07-31T07:27:33;25.80;57.60
11989;DHT22;6054;50.966;7.094;2023-07-31T07:30:00;25.80;57.30
11989;DHT22;6054;50.966;7.094;2023-07-31T07:32:27;25.90;57.40
11989;DHT22;6054;50.966;7.094;2023-07-31T07:34:53;25.80;57.30
11989;DHT22;6054;50.966;7.094;2023-07-31T07:37:21;25.90;57.90
11989;DHT22;6054;50.966;7.094;2023-07-31T07:39:48;25.90;57.30
11989;DHT22;6054;50.966;7.094;2023-07-31T07:42:16;25.90;57.50
11989;DHT22;6054;50.966;7.094;2023-07-31T07:44:43;25.90;57.50
11989;DHT22;6054;50.966;7.094;2023-07-31T07:47:10;26.00;57.50
11989;DHT22;6054;50.966;7.094;2023-07-31T07:49:36;26.10;57.60
11989;DHT22;6054;50.966;7.094;2023-07-31T07:52:04;25.90;57.10
11989;DHT22;6054;50.966;7.094;2023-07-31T07:54:31;25.90;57.80
11989;DHT22;6054;50.966;7.094;2023-07-31T07:56:58;25.90;57.80
11989;DHT22;6054;50.966;7.094;2023-07-31T07:59:26;25.80;57.90
11989;DHT22;6054;50.966;7.094;2023-07-31T08:01:53;25.80;57.40
11989;DHT22;6054;50.966;7.094;2023-07-31T08:04:21;25.80;58.10
11989;DHT22;6054;50.966;7.094;2023-07-31T08:06:47;25.90;57.90
11989;DHT22;6054;50.966;7.094;2023-07-31T08:09:14;25.80;58.10
11989;DHT22;6054;50.966;7.094;2023-07-31T08:11:41;26.00;57.90
11989;DHT22;6054;50.966;7.094;2023-07-31T08:14:08;25.70;58.50
11989;DHT22;6054;50.966;7.094;2023-07-31T08:16:36;25.90;58.60
11989;DHT22;6054;50.966;7.094;2023-07-31T08:19:02;25.70;58.60
11989;DHT22;6054;50.966;7.094;2023-07-31T08:21:29;25.70;58.90
11989;DHT22;6054;50.966;7.094;2023-07-31T08:23:56;25.70;58.90
11989;DHT22;6054;50.966;7.094;2023-07-31T08:26:23;25.60;58.70
11989;DHT22;6054;50.966;7.094;2023-07-31T08:28:49;25.60;58.80
11989;DHT22;6054;50.966;7.094;2023-07-31T08:31:16;25.70;58.70
11989;DHT22;6054;50.966;7.094;2023-07-31T08:33:45;25.60;59.00
11989;DHT22;6054;50.966;7.094;2023-07-31T08:36:12;25.70;59.20
11989;DHT22;6054;50.966;7.094;2023-07-31T08:38:38;25.60;59.30
11989;DHT22;6054;50.966;7.094;2023-07-31T08:41:05;25.50;59.20
11989;DHT22;6054;50.966;7.094;2023-07-31T08:43:32;25.50;59.30
11989;DHT22;6054;50.966;7.094;2023-07-31T08:46:00;25.50;60.00
11989;DHT22;6054;50.966;7.094;2023-07-31T08:48:28;25.60;60.30
11989;DHT22;6054;50.966;7.094;2023-07-31T08:50:57;25.50;60.10
11989;DHT22;6054;50.966;7.094;2023-07-31T08:53:24;25.40;60.00
11989;DHT22;6054;50.966;7.094;2023-07-31T08:55:52;25.60;60.60
11989;DHT22;6054;50.966;7.094;2023-07-31T08:58:20;25.50;61.30
11989;DHT22;6054;50.966;7.094;2023-07-31T09:00:47;25.40;61.30
11989;DHT22;6054;50.966;7.094;2023-07-31T09:03:16;25.60;61.70
11989;DHT22;6054;50.966;7.094;2023-07-31T09:05:45;25.40;61.50
11989;DHT22;6054;50.966;7.094;2023-07-31T09:08:15;25.40;61.60
11989;DHT22;6054;50.966;7.094;2023-07-31T09:10:45;25.60;62.00
11989;DHT22;6054;50.966;7.094;2023-07-31T09:13:12;25.50;62.20
11989;DHT22;6054;50.966;7.094;2023-07-31T09:15:39;25.50;62.20
11989;DHT22;6054;50.966;7.094;2023-07-31T09:18:07;25.40;62.60
11989;DHT22;6054;50.966;7.094;2023-07-31T09:20:34;25.50;62.50
11989;DHT22;6054;50.966;7.094;2023-07-31T09:23:07;25.50;62.90
11989;DHT22;6054;50.966;7.094;2023-07-31T09:25:36;25.50;62.70
11989;DHT22;6054;50.966;7.094;2023-07-31T09:28:05;25.50;62.60
11989;DHT22;6054;50.966;7.094;2023-07-31T09:30:45;25.50;62.20
11989;DHT22;6054;50.966;7.094;2023-07-31T09:33:12;25.50;62.30
11989;DHT22;6054;50.966;7.094;2023-07-31T09:35:39;25.50;61.50
11989;DHT22;6054;50.966;7.094;2023-07-31T09:38:08;25.60;62.20
11989;DHT22;6054;50.966;7.094;2023-07-31T09:40:38;25.50;62.50
11989;DHT22;6054;50.966;7.094;2023-07-31T09:43:06;25.40;62.50
11989;DHT22;6054;50.966;7.094;2023-07-31T09:45:34;25.40;62.40
11989;DHT22;6054;50.966;7.094;2023-07-31T09:48:01;25.40;62.60
11989;DHT22;6054;50.966;7.094;2023-07-31T09:50:29;25.40;62.50
11989;DHT22;6054;50.966;7.094;2023-07-31T09:52:56;25.40;62.20
11989;DHT22;6054;50.966;7.094;2023-07-31T09:55:24;25.40;62.20
11989;DHT22;6054;50.966;7.094;2023-07-31T09:57:54;25.60;62.10
11989;DHT22;6054;50.966;7.094;2023-07-31T10:00:22;25.40;62.70
11989;DHT22;6054;50.966;7.094;2023-07-31T10:26:05;25.60;63.60
11989;DHT22;6054;50.966;7.094;2023-07-31T10:28:34;25.60;63.50
11989;DHT22;6054;50.966;7.094;2023-07-31T10:31:03;25.80;63.60
11989;DHT22;6054;50.966;7.094;2023-07-31T10:33:30;25.70;63.40
11989;DHT22;6054;50.966;7.094;2023-07-31T10:36:12;25.70;63.20
11989;DHT22;6054;50.966;7.094;2023-07-31T10:38:39;25.70;63.90
11989;DHT22;6054;50.966;7.094;2023-07-31T10:41:10;25.70;63.60
11989;DHT22;6054;50.966;7.094;2023-07-31T10:43:37;25.70;64.00
11989;DHT22;6054;50.966;7.094;2023-07-31T10:46:06;25.80;64.30
11989;DHT22;6054;50.966;7.094;2023-07-31T10:48:35;25.90;64.10
11989;DHT22;6054;50.966;7.094;2023-07-31T10:51:07;25.90;64.20
11989;DHT22;6054;50.966;7.094;2023-07-31T10:53:35;25.90;64.20
11989;DHT22;6054;50.966;7.094;2023-07-31T10:56:03;25.90;64.20
11989;DHT22;6054;50.966;7.094;2023-07-31T10:58:32;25.90;63.80
11989;DHT22;6054;50.966;7.094;2023-07-31T11:01:01;25.90;63.90
11989;DHT22;6054;50.966;7.094;2023-07-31T11:03:41;26.00;64.30
11989;DHT22;6054;50.966;7.094;2023-07-31T11:06:08;26.00;64.40
11989;DHT22;6054;50.966;7.094;2023-07-31T11:08:40;26.20;64.50
11989;DHT22;6054;50.966;7.094;2023-07-31T11:11:09;26.00;64.50
11989;DHT22;6054;50.966;7.094;2023-07-31T11:13:43;26.10;64.40
11989;DHT22;6054;50.966;7.094;2023-07-31T11:16:10;26.10;64.40
11989;DHT22;6054;50.966;7.094;2023-07-31T11:18:39;26.30;64.40
11989;DHT22;6054;50.966;7.094;2023-07-31T11:21:06;26.10;63.20
11989;DHT22;6054;50.966;7.094;2023-07-31T11:23:33;26.10;61.90
11989;DHT22;6054;50.966;7.094;2023-07-31T11:26:05;26.00;61.90
11989;DHT22;6054;50.966;7.094;2023-07-31T11:28:33;25.90;62.10
11989;DHT22;6054;50.966;7.094;2023-07-31T11:31:02;25.90;62.60
11989;DHT22;6054;50.966;7.094;2023-07-31T11:33:29;25.90;63.00
11989;DHT22;6054;50.966;7.094;2023-07-31T11:35:56;25.90;63.20
11989;DHT22;6054;50.966;7.094;2023-07-31T11:38:24;25.90;63.40
11989;DHT22;6054;50.966;7.094;2023-07-31T11:40:51;25.90;63.40
11989;DHT22;6054;50.966;7.094;2023-07-31T11:43:19;25.90;63.10
11989;DHT22;6054;50.966;7.094;2023-07-31T11:45:47;25.90;63.50
11989;DHT22;6054;50.966;7.094;2023-07-31T11:48:24;25.90;63.50
11989;DHT22;6054;50.966;7.094;2023-07-31T11:50:53;25.90;63.60
11989;DHT22;6054;50.966;7.094;2023-07-31T11:53:26;26.20;64.00
11989;DHT22;6054;50.966;7.094;2023-07-31T11:55:54;26.00;63.20
11989;DHT22;6054;50.966;7.094;2023-07-31T11:58:22;26.10;63.30
11989;DHT22;6054;50.966;7.094;2023-07-31T12:00:49;26.10;62.90
11989;DHT22;6054;50.966;7.094;2023-07-31T12:03:16;26.30;63.00
11989;DHT22;6054;50.966;7.094;2023-07-31T12:05:44;26.20;62.10
11989;DHT22;6054;50.966;7.094;2023-07-31T12:08:13;26.20;62.40
11989;DHT22;6054;50.966;7.094;2023-07-31T12:10:41;26.30;60.70
11989;DHT22;6054;50.966;7.094;2023-07-31T12:13:10;26.50;61.00
11989;DHT22;6054;50.966;7.094;2023-07-31T12:15:40;26.30;60.00
11989;DHT22;6054;50.966;7.094;2023-07-31T12:18:09;26.30;60.00
11989;DHT22;6054;50.966;7.094;2023-07-31T12:20:41;26.40;60.30
11989;DHT22;6054;50.966;7.094;2023-07-31T12:23:14;26.30;60.40
11989;DHT22;6054;50.966;7.094;2023-07-31T12:25:41;26.30;60.60
11989;DHT22;6054;50.966;7.094;2023-07-31T12:28:08;26.50;60.30
11989;DHT22;6054;50.966;7.094;2023-07-31T12:30:38;26.40;60.60
11989;DHT22;6054;50.966;7.094;2023-07-31T12:33:06;26.40;61.00
11989;DHT22;6054;50.966;7.094;2023-07-31T12:35:37;26.40;60.90
11989;DHT22;6054;50.966;7.094;2023-07-31T12:38:04;26.40;61.10
11989;DHT22;6054;50.966;7.094;2023-07-31T12:40:32;26.40;60.20
11989;DHT22;6054;50.966;7.094;2023-07-31T12:43:01;26.40;59.50
11989;DHT22;6054;50.966;7.094;2023-07-31T12:45:29;26.40;59.60
11989;DHT22;6054;50.966;7.094;2023-07-31T12:47:56;26.50;60.10
11989;DHT22;6054;50.966;7.094;2023-07-31T12:50:23;26.40;59.40
11989;DHT22;6054;50.966;7.094;2023-07-31T12:52:51;26.40;59.70
11989;DHT22;6054;50.966;7.094;2023-07-31T12:55:18;26.50;59.60
11989;DHT22;6054;50.966;7.094;2023-07-31T12:57:46;26.50;59.60
11989;DHT22;6054;50.966;7.094;2023-07-31T13:00:13;26.70;59.70
11989;DHT22;6054;50.966;7.094;2023-07-31T13:02:40;26.60;59.80
11989;DHT22;6054;50.966;7.094;2023-07-31T13:05:07;26.60;59.80
11989;DHT22;6054;50.966;7.094;2023-07-31T13:07:34;26.60;60.30
11989;DHT22;6054;50.966;7.094;2023-07-31T13:10:01;26.70;60.10
11989;DHT22;6054;50.966;7.094;2023-07-31T13:12:28;26.70;60.00
11989;DHT22;6054;50.966;7.094;2023-07-31T13:14:56;26.70;60.00
11989;DHT22;6054;50.966;7.094;2023-07-31T13:17:22;26.70;60.00
11989;DHT22;6054;50.966;7.094;2023-07-31T13:19:49;26.90;60.10
11989;DHT22;6054;50.966;7.094;2023-07-31T13:22:16;26.70;59.90
11989;DHT22;6054;50.966;7.094;2023-07-31T13:24:43;26.70;58.60
11989;DHT22;6054;50.966;7.094;2023-07-31T13:27:09;26.80;59.20
11989;DHT22;6054;50.966;7.094;2023-07-31T13:29:36;27.00;59.20
11989;DHT22;6054;50.966;7.094;2023-07-31T13:32:05;27.10;59.40
11989;DHT22;6054;50.966;7.094;2023-07-31T13:34:32;26.90;59.20
11989;DHT22;6054;50.966;7.094;2023-07-31T13:36:58;26.90;59.00
11989;DHT22;6054;50.966;7.094;2023-07-31T13:39:25;27.00;59.20
11989;DHT22;6054;50.966;7.094;2023-07-31T13:41:52;27.00;59.20
11989;DHT22;6054;50.966;7.094;2023-07-31T13:44:19;27.20;59.10
11989;DHT22;6054;50.966;7.094;2023-07-31T13:46:45;26.90;58.80
11989;DHT22;6054;50.966;7.094;2023-07-31T13:49:14;27.00;59.20
11989;DHT22;6054;50.966;7.094;2023-07-31T13:51:41;27.00;59.30
11989;DHT22;6054;50.966;7.094;2023-07-31T13:54:08;27.10;59.30
11989;DHT22;6054;50.966;7.094;2023-07-31T13:56:37;27.30;59.20
11989;DHT22;6054;50.966;7.094;2023-07-31T13:59:04;27.30;59.30
11989;DHT22;6054;50.966;7.094;2023-07-31T14:01:31;27.20;59.10
11989;DHT22;6054;50.966;7.094;2023-07-31T14:03:58;27.50;58.80
11989;DHT22;6054;50.966;7.094;2023-07-31T14:06:26;27.30;58.20
11989;DHT22;6054;50.966;7.094;2023-07-31T14:08:52;27.40;58.50
11989;DHT22;6054;50.966;7.094;2023-07-31T14:11:21;27.40;58.20
11989;DHT22;6054;50.966;7.094;2023-07-31T14:13:47;27.40;57.30
11989;DHT22;6054;50.966;7.094;2023-07-31T14:16:14;27.60;56.50
11989;DHT22;6054;50.966;7.094;2023-07-31T14:18:41;27.70;56.60
11989;DHT22;6054;50.966;7.094;2023-07-31T14:21:08;27.60;56.30
11989;DHT22;6054;50.966;7.094;2023-07-31T14:23:36;27.60;56.20
11989;DHT22;6054;50.966;7.094;2023-07-31T14:26:03;27.60;56.00
11989;DHT22;6054;50.966;7.094;2023-07-31T14:28:30;27.70;56.60
11989;DHT22;6054;50.966;7.094;2023-07-31T14:30:57;27.60;55.90
11989;DHT22;6054;50.966;7.094;2023-07-31T14:33:24;27.60;56.40
11989;DHT22;6054;50.966;7.094;2023-07-31T14:35:51;27.60;55.40
11989;DHT22;6054;50.966;7.094;2023-07-31T14:38:18;27.60;54.60
11989;DHT22;6054;50.966;7.094;2023-07-31T14:40:46;27.40;54.70
11989;DHT22;6054;50.966;7.094;2023-07-31T14:43:13;27.40;54.80
11989;DHT22;6054;50.966;7.094;2023-07-31T14:45:40;27.40;55.60
11989;DHT22;6054;50.966;7.094;2023-07-31T14:48:07;27.40;54.60
11989;DHT22;6054;50.966;7.094;2023-07-31T14:50:34;27.50;56.50
11989;DHT22;6054;50.966;7.094;2023-07-31T14:53:01;27.60;56.20
11989;DHT22;6054;50.966;7.094;2023-07-31T14:55:27;27.40;55.20
11989;DHT22;6054;50.966;7.094;2023-07-31T14:57:55;27.60;55.40
11989;DHT22;6054;50.966;7.094;2023-07-31T15:00:22;27.40;54.70
11989;DHT22;6054;50.966;7.094;2023-07-31T15:02:49;27.60;55.50
11989;DHT22;6054;50.966;7.094;2023-07-31T15:05:16;27.40;55.60
11989;DHT22;6054;50.966;7.094;2023-07-31T15:07:43;27.40;55.90
11989;DHT22;6054;50.966;7.094;2023-07-31T15:10:10;27.50;55.30
11989;DHT22;6054;50.966;7.094;2023-07-31T15:12:36;27.60;55.30
11989;DHT22;6054;50.966;7.094;2023-07-31T15:15:06;27.40;54.80
11989;DHT22;6054;50.966;7.094;2023-07-31T15:17:33;27.40;55.10
11989;DHT22;6054;50.966;7.094;2023-07-31T15:20:00;27.40;55.50
11989;DHT22;6054;50.966;7.094;2023-07-31T15:22:27;27.50;55.30
11989;DHT22;6054;50.966;7.094;2023-07-31T15:24:53;27.60;55.10
11989;DHT22;6054;50.966;7.094;2023-07-31T15:27:20;27.50;55.50
11989;DHT22;6054;50.966;7.094;2023-07-31T15:29:47;27.70;55.30
11989;DHT22;6054;50.966;7.094;2023-07-31T15:32:17;27.50;55.40
11989;DHT22;6054;50.966;7.094;2023-07-31T15:34:44;27.50;54.60
11989;DHT22;6054;50.966;7.094;2023-07-31T15:37:11;27.50;54.80
11989;DHT22;6054;50.966;7.094;2023-07-31T15:39:40;27.70;55.00
11989;DHT22;6054;50.966;7.094;2023-07-31T15:42:07;27.50;53.70
11989;DHT22;6054;50.966;7.094;2023-07-31T15:44:34;27.50;54.60
11989;DHT22;6054;50.966;7.094;2023-07-31T15:47:01;27.60;54.90
11989;DHT22;6054;50.966;7.094;2023-07-31T15:49:29;27.70;54.70
11989;DHT22;6054;50.966;7.094;2023-07-31T15:51:56;27.50;55.20
11989;DHT22;6054;50.966;7.094;2023-07-31T15:54:23;27.50;55.40
11989;DHT22;6054;50.966;7.094;2023-07-31T15:56:49;27.50;55.00
11989;DHT22;6054;50.966;7.094;2023-07-31T15:59:16;27.60;54.90
11989;DHT22;6054;50.966;7.094;2023-07-31T16:01:43;27.50;55.10
11989;DHT22;6054;50.966;7.094;2023-07-31T16:04:10;27.70;55.40
11989;DHT22;6054;50.966;7.094;2023-07-31T16:06:38;27.70;55.00
11989;DHT22;6054;50.966;7.094;2023-07-31T16:09:05;27.60;54.00
11989;DHT22;6054;50.966;7.094;2023-07-31T16:11:34;27.60;53.90
11989;DHT22;6054;50.966;7.094;2023-07-31T16:14:01;27.60;53.00
11989;DHT22;6054;50.966;7.094;2023-07-31T16:16:28;27.60;54.40